Time;durP1;ratioP1;P1;durP2;ratioP2;P2;SDS_P1;SDS_P2;PMS_P1;PMS_P2;Temp;Humidity;BMP_temperature;BMP_pressure;BME280_temperature;BME280_humidity;BME280_pressure;Samples;Min_cycle;Max_cycle;Signal;HPM_P1;HPM_P2
2023/11/20 06:00:49;;;;;;;12.60;3.10;;;;;;;;;;5819002;23;20847;-75
2023/11/20 06:03:15;;;;;;;6.87;2.93;;;;;;;;;;4934694;29;20414;-75
2023/11/20 06:05:41;;;;;;;17.33;3.00;;;;;;;;;;4934441;29;20416;-75
2023/11/20 06:08:08;;;;;;;6.60;3.03;;;;;;;;;;4934612;29;20421;-75
2023/11/20 06:10:34;;;;;;;13.03;2.47;;;;;;;;;;4934111;29;21022;-75
2023/11/20 06:13:03;;;;;;;6.50;2.43;;;;;;;;;;4934811;29;20446;-77
2023/11/20 06:15:29;;;;;;;11.10;2.90;;;;;;;;;;4934197;29;20414;-75
2023/11/20 06:17:57;;;;;;;11.23;3.03;;;;;;;;;;4934230;29;20824;-75
2023/11/20 06:20:23;;;;;;;7.73;3.03;;;;;;;;;;4934257;29;20421;-74
2023/11/20 06:22:48;;;;;;;10.73;2.60;;;;;;;;;;4932966;29;20929;-74
2023/11/20 06:25:15;;;;;;;14.20;2.70;;;;;;;;;;4933334;29;20432;-74
2023/11/20 06:27:41;;;;;;;12.50;3.10;;;;;;;;;;4933644;29;20451;-74
2023/11/20 06:30:07;;;;;;;15.00;3.13;;;;;;;;;;4933355;29;20462;-74
2023/11/20 06:32:33;;;;;;;9.43;3.53;;;;;;;;;;4933688;29;20448;-75
2023/11/20 06:34:59;;;;;;;14.30;2.80;;;;;;;;;;4935433;29;20834;-73
2023/11/20 06:37:25;;;;;;;8.13;2.63;;;;;;;;;;4936910;29;20848;-72
2023/11/20 06:39:51;;;;;;;11.17;3.47;;;;;;;;;;4936849;29;20425;-71
2023/11/20 06:42:17;;;;;;;8.10;3.40;;;;;;;;;;4936609;29;20441;-70
2023/11/20 06:44:43;;;;;;;14.20;3.53;;;;;;;;;;4937190;29;20449;-71
2023/11/20 06:47:10;;;;;;;9.70;3.33;;;;;;;;;;4936794;29;20425;-71
2023/11/20 06:49:36;;;;;;;16.33;2.70;;;;;;;;;;4937467;29;20509;-70
2023/11/20 06:52:03;;;;;;;8.80;2.43;;;;;;;;;;4937072;29;20513;-71
2023/11/20 06:54:29;;;;;;;8.60;2.70;;;;;;;;;;4937089;29;20410;-71
2023/11/20 06:56:55;;;;;;;15.90;2.90;;;;;;;;;;4936760;29;20405;-71
2023/11/20 06:59:21;;;;;;;6.80;2.90;;;;;;;;;;4937067;29;20476;-71
2023/11/20 07:01:47;;;;;;;12.57;3.33;;;;;;;;;;4936779;29;20486;-72
2023/11/20 07:04:15;;;;;;;7.30;3.43;;;;;;;;;;4935733;29;20433;-72
2023/11/20 07:06:42;;;;;;;12.10;3.33;;;;;;;;;;4936600;29;20406;-71
2023/11/20 07:09:13;;;;;;;9.73;2.70;;;;;;;;;;4936883;29;20406;-71
2023/11/20 07:11:39;;;;;;;12.30;3.43;;;;;;;;;;4936975;29;21002;-71
2023/11/20 07:14:08;;;;;;;12.33;2.60;;;;;;;;;;4936655;29;20414;-71
2023/11/20 07:16:34;;;;;;;21.13;3.50;;;;;;;;;;4936429;29;20425;-72
2023/11/20 07:19:00;;;;;;;15.10;3.00;;;;;;;;;;4936900;29;20556;-72
2023/11/20 07:21:26;;;;;;;9.70;2.40;;;;;;;;;;4936511;29;20442;-71
2023/11/20 07:23:52;;;;;;;9.70;2.67;;;;;;;;;;4936982;29;20410;-72
2023/11/20 07:26:18;;;;;;;18.93;4.37;;;;;;;;;;4936192;29;20418;-70
2023/11/20 07:28:46;;;;;;;12.20;4.00;;;;;;;;;;4936441;29;20418;-71
2023/11/20 07:31:12;;;;;;;10.20;3.73;;;;;;;;;;4936391;29;21058;-70
2023/11/20 07:33:38;;;;;;;6.93;2.90;;;;;;;;;;4936493;29;20410;-71
2023/11/20 07:36:05;;;;;;;15.93;3.03;;;;;;;;;;4936000;29;20406;-71
2023/11/20 07:38:31;;;;;;;13.80;2.70;;;;;;;;;;4936314;29;20438;-71
2023/11/20 07:41:00;;;;;;;13.83;3.07;;;;;;;;;;4934949;29;20444;-71
2023/11/20 07:43:25;;;;;;;12.90;3.17;;;;;;;;;;4943534;29;20443;-70
2023/11/20 07:45:51;;;;;;;10.60;2.83;;;;;;;;;;4948177;28;20416;-69
2023/11/20 07:48:17;;;;;;;8.43;2.80;;;;;;;;;;4954953;28;20494;-70
2023/11/20 07:50:45;;;;;;;10.90;4.20;;;;;;;;;;4955047;28;20515;-71
2023/11/20 07:53:11;;;;;;;9.40;3.97;;;;;;;;;;4954169;28;20463;-70
2023/11/20 07:55:37;;;;;;;9.30;2.87;;;;;;;;;;4954917;29;20413;-69
2023/11/20 07:58:04;;;;;;;10.77;2.90;;;;;;;;;;4952496;28;20416;-69
2023/11/20 08:00:29;;;;;;;9.63;3.27;;;;;;;;;;4928265;29;20449;-67
2023/11/20 08:02:55;;;;;;;13.87;4.50;;;;;;;;;;4921477;29;20607;-72
2023/11/20 08:05:21;;;;;;;11.63;3.17;;;;;;;;;;4934324;29;20438;-69
2023/11/20 08:07:48;;;;;;;12.60;3.47;;;;;;;;;;4935571;29;20428;-69
2023/11/20 08:10:16;;;;;;;9.77;3.67;;;;;;;;;;4932044;29;20457;-68
2023/11/20 08:12:44;;;;;;;7.47;3.07;;;;;;;;;;4935452;29;20454;-71
2023/11/20 08:15:11;;;;;;;13.80;2.60;;;;;;;;;;4935482;29;20476;-72
2023/11/20 08:17:38;;;;;;;7.60;2.47;;;;;;;;;;4942709;29;20442;-71
2023/11/20 08:20:04;;;;;;;9.83;2.30;;;;;;;;;;4934858;29;20452;-71
2023/11/20 08:22:31;;;;;;;8.57;3.10;;;;;;;;;;4928394;29;20510;-71
2023/11/20 08:24:58;;;;;;;12.20;2.67;;;;;;;;;;4924676;29;20433;-71
2023/11/20 08:27:24;;;;;;;10.43;3.07;;;;;;;;;;4916026;29;20914;-71
2023/11/20 08:29:49;;;;;;;9.03;2.50;;;;;;;;;;4920637;29;20465;-70
2023/11/20 08:32:16;;;;;;;12.10;3.50;;;;;;;;;;4918078;29;20450;-70
2023/11/20 08:34:42;;;;;;;17.10;3.00;;;;;;;;;;4917634;29;20418;-70
2023/11/20 08:37:08;;;;;;;6.80;2.80;;;;;;;;;;4916154;29;20937;-70
2023/11/20 08:39:35;;;;;;;9.30;2.80;;;;;;;;;;4918095;29;20522;-70
2023/11/20 08:42:01;;;;;;;13.00;4.07;;;;;;;;;;4934782;29;20444;-71
2023/11/20 08:44:27;;;;;;;11.53;2.60;;;;;;;;;;4930359;29;20419;-70
2023/11/20 08:46:54;;;;;;;11.90;3.10;;;;;;;;;;4917438;29;20426;-70
2023/11/20 08:49:20;;;;;;;10.03;3.00;;;;;;;;;;4931220;29;20429;-71
2023/11/20 08:51:46;;;;;;;10.33;2.70;;;;;;;;;;4918200;29;20435;-70
2023/11/20 08:54:12;;;;;;;16.20;3.30;;;;;;;;;;4922753;29;20429;-71
2023/11/20 08:56:38;;;;;;;17.37;3.23;;;;;;;;;;4936593;29;20424;-70
2023/11/20 08:59:04;;;;;;;13.27;3.67;;;;;;;;;;4954357;29;20418;-71
2023/11/20 09:01:30;;;;;;;10.60;2.20;;;;;;;;;;4955940;29;20433;-70
2023/11/20 09:03:56;;;;;;;10.50;2.90;;;;;;;;;;4958180;29;20413;-71
2023/11/20 09:06:22;;;;;;;11.50;2.87;;;;;;;;;;4954033;29;20441;-71
2023/11/20 09:08:48;;;;;;;8.33;2.30;;;;;;;;;;4939808;29;20434;-72
2023/11/20 09:11:14;;;;;;;14.00;2.80;;;;;;;;;;4926892;29;20529;-72
2023/11/20 09:13:40;;;;;;;11.67;2.37;;;;;;;;;;4937822;29;20417;-72
2023/11/20 09:16:07;;;;;;;11.80;2.70;;;;;;;;;;4937642;29;20829;-71
2023/11/20 09:18:33;;;;;;;8.97;2.70;;;;;;;;;;4927663;29;20913;-72
2023/11/20 09:21:02;;;;;;;5.33;2.37;;;;;;;;;;4934847;29;20513;-71
2023/11/20 09:23:28;;;;;;;10.60;3.03;;;;;;;;;;4921830;29;20424;-71
2023/11/20 09:25:54;;;;;;;14.73;3.10;;;;;;;;;;4934942;29;20923;-71
2023/11/20 09:28:20;;;;;;;12.80;3.40;;;;;;;;;;4921504;29;20464;-72
2023/11/20 09:30:46;;;;;;;9.70;2.30;;;;;;;;;;4933140;29;20496;-71
2023/11/20 09:33:12;;;;;;;10.07;2.60;;;;;;;;;;4937483;29;20534;-71
2023/11/20 09:35:38;;;;;;;9.70;2.50;;;;;;;;;;4937878;29;20497;-71
2023/11/20 09:38:05;;;;;;;8.87;2.60;;;;;;;;;;4934109;29;20429;-71
2023/11/20 09:40:31;;;;;;;8.27;2.70;;;;;;;;;;4933817;29;20496;-72
2023/11/20 09:42:58;;;;;;;12.77;2.43;;;;;;;;;;4929238;29;20437;-71
2023/11/20 09:45:28;;;;;;;11.47;2.27;;;;;;;;;;4942634;29;20421;-70
2023/11/20 09:47:55;;;;;;;9.17;2.83;;;;;;;;;;4931902;29;20453;-70
2023/11/20 09:50:23;;;;;;;7.30;2.40;;;;;;;;;;4925147;29;20513;-71
2023/11/20 09:52:50;;;;;;;7.90;2.73;;;;;;;;;;4914752;29;20426;-71
2023/11/20 09:55:16;;;;;;;7.63;2.20;;;;;;;;;;4926218;29;20422;-71
2023/11/20 09:57:42;;;;;;;9.73;2.57;;;;;;;;;;4927288;29;20454;-72
2023/11/20 10:00:14;;;;;;;15.53;3.23;;;;;;;;;;4928040;29;20469;-71
2023/11/20 10:02:41;;;;;;;8.20;3.30;;;;;;;;;;4924721;29;20429;-72
2023/11/20 10:05:08;;;;;;;12.87;2.50;;;;;;;;;;4930072;29;20462;-71
2023/11/20 10:07:37;;;;;;;10.03;2.70;;;;;;;;;;4914855;29;20411;-72
2023/11/20 10:10:03;;;;;;;6.57;2.20;;;;;;;;;;4932886;28;20559;-73
2023/11/20 10:12:31;;;;;;;10.20;3.07;;;;;;;;;;4930410;29;20453;-72
2023/11/20 10:14:57;;;;;;;8.63;2.53;;;;;;;;;;4927776;29;20418;-70
2023/11/20 10:17:24;;;;;;;17.27;3.50;;;;;;;;;;4923048;29;20417;-70
2023/11/20 10:19:50;;;;;;;8.63;2.33;;;;;;;;;;4937149;29;20437;-71
2023/11/20 10:22:19;;;;;;;10.33;3.47;;;;;;;;;;4920838;29;20446;-70
2023/11/20 10:24:46;;;;;;;11.77;2.47;;;;;;;;;;4926928;29;20458;-69
2023/11/20 10:27:14;;;;;;;13.20;3.10;;;;;;;;;;4926508;29;20422;-69
2023/11/20 10:29:41;;;;;;;21.00;2.93;;;;;;;;;;4921210;29;20557;-71
2023/11/20 10:32:07;;;;;;;11.23;2.53;;;;;;;;;;4918797;29;20446;-70
2023/11/20 10:34:33;;;;;;;7.10;2.60;;;;;;;;;;4929091;29;20525;-71
2023/11/20 10:37:04;;;;;;;10.90;3.20;;;;;;;;;;4937307;29;20425;-72
2023/11/20 10:39:30;;;;;;;7.10;2.60;;;;;;;;;;4932418;29;20452;-76
2023/11/20 10:41:57;;;;;;;12.50;2.90;;;;;;;;;;4937568;29;20432;-75
2023/11/20 10:44:25;;;;;;;8.70;2.60;;;;;;;;;;4937633;29;20428;-75
2023/11/20 10:46:51;;;;;;;7.40;2.50;;;;;;;;;;4937528;29;20824;-76
2023/11/20 10:49:20;;;;;;;11.20;2.77;;;;;;;;;;4934736;29;20414;-75
2023/11/20 10:51:52;;;;;;;6.10;2.93;;;;;;;;;;4930533;29;20818;-74
2023/11/20 10:54:25;;;;;;;8.53;2.90;;;;;;;;;;4932630;29;20905;-74
2023/11/20 10:56:52;;;;;;;7.80;3.00;;;;;;;;;;4920622;29;20509;-73
2023/11/20 10:59:21;;;;;;;6.20;2.10;;;;;;;;;;4923567;29;20544;-75
2023/11/20 11:01:49;;;;;;;8.73;2.37;;;;;;;;;;4937351;29;20949;-75
2023/11/20 11:04:16;;;;;;;8.93;3.00;;;;;;;;;;4937543;29;20421;-75
2023/11/20 11:06:43;;;;;;;11.73;2.90;;;;;;;;;;4938684;29;20425;-75
2023/11/20 11:09:10;;;;;;;8.57;2.47;;;;;;;;;;4937717;29;20436;-75
2023/11/20 11:11:37;;;;;;;6.50;2.00;;;;;;;;;;4936795;29;20479;-74
2023/11/20 11:14:03;;;;;;;8.33;2.40;;;;;;;;;;4936918;29;20425;-74
2023/11/20 11:16:39;;;;;;;10.23;2.60;;;;;;;;;;4935975;29;20994;-74
2023/11/20 11:19:08;;;;;;;7.67;1.80;;;;;;;;;;4936700;29;20417;-74
2023/11/20 11:21:56;;;;;;;6.30;2.37;;;;;;;;;;4936392;29;20438;-74
2023/11/20 11:24:24;;;;;;;4.37;1.57;;;;;;;;;;4936794;29;20421;-74
2023/11/20 11:26:55;;;;;;;7.50;2.30;;;;;;;;;;4935273;29;20434;-74
2023/11/20 11:29:26;;;;;;;6.00;2.10;;;;;;;;;;4936581;29;20504;-73
2023/11/20 11:32:00;;;;;;;6.67;1.93;;;;;;;;;;4921756;29;20445;-74
2023/11/20 11:34:45;;;;;;;8.63;2.13;;;;;;;;;;4936873;29;20432;-74
2023/11/20 11:37:14;;;;;;;9.13;1.93;;;;;;;;;;4935162;29;20417;-75
2023/11/20 11:39:44;;;;;;;6.30;2.03;;;;;;;;;;4936440;29;20429;-74
2023/11/20 11:42:13;;;;;;;6.83;2.30;;;;;;;;;;4936478;29;20429;-74
2023/11/20 11:44:59;;;;;;;10.53;2.47;;;;;;;;;;4936554;29;20960;-75
2023/11/20 11:47:27;;;;;;;13.80;3.27;;;;;;;;;;4935435;29;20429;-70
2023/11/20 11:49:55;;;;;;;6.80;1.97;;;;;;;;;;4936373;29;20515;-75
2023/11/20 11:52:26;;;;;;;10.93;2.57;;;;;;;;;;4936138;29;20492;-74
2023/11/20 11:55:11;;;;;;;6.43;2.10;;;;;;;;;;4936016;29;20497;-75
2023/11/20 11:57:38;;;;;;;4.23;1.80;;;;;;;;;;4929371;29;20441;-75
2023/11/20 12:00:19;;;;;;;6.40;1.90;;;;;;;;;;4926170;29;20908;-73
2023/11/20 12:02:52;;;;;;;3.00;1.50;;;;;;;;;;4936006;29;20453;-72
2023/11/20 12:05:19;;;;;;;3.87;1.53;;;;;;;;;;4936781;29;20406;-72
2023/11/20 12:07:49;;;;;;;5.93;1.57;;;;;;;;;;4938255;29;20928;-72
2023/11/20 12:10:16;;;;;;;6.47;1.60;;;;;;;;;;4938018;29;20505;-72
2023/11/20 12:12:48;;;;;;;8.20;2.00;;;;;;;;;;4938173;29;20489;-71
2023/11/20 12:15:37;;;;;;;4.37;1.50;;;;;;;;;;5000180;23;20578;-72
2023/11/20 12:18:06;;;;;;;7.93;1.90;;;;;;;;;;4974437;28;20400;-72
2023/11/20 12:20:36;;;;;;;3.47;1.47;;;;;;;;;;4955157;28;20495;-72
2023/11/20 12:23:09;;;;;;;3.03;1.27;;;;;;;;;;4955019;29;20409;-72
2023/11/20 12:25:39;;;;;;;2.60;1.37;;;;;;;;;;4954996;28;20783;-70
2023/11/20 12:28:08;;;;;;;2.93;1.70;;;;;;;;;;4955156;29;20904;-73
2023/11/20 12:30:35;;;;;;;2.87;1.33;;;;;;;;;;4953072;28;20461;-73
2023/11/20 12:33:02;;;;;;;4.63;1.63;;;;;;;;;;4954105;28;20908;-74
2023/11/20 12:35:28;;;;;;;2.03;1.20;;;;;;;;;;4946723;28;20430;-74
2023/11/20 12:37:54;;;;;;;1.13;1.03;;;;;;;;;;4946219;29;20417;-74
2023/11/20 12:40:20;;;;;;;1.40;1.40;;;;;;;;;;4950658;28;20506;-73
2023/11/20 12:42:46;;;;;;;2.13;1.30;;;;;;;;;;4954435;29;20408;-72
2023/11/20 12:45:12;;;;;;;2.73;1.30;;;;;;;;;;4952882;28;20523;-73
2023/11/20 12:47:38;;;;;;;3.87;1.70;;;;;;;;;;4954253;29;20424;-73
2023/11/20 12:50:05;;;;;;;5.67;1.30;;;;;;;;;;4954152;28;20472;-73
2023/11/20 12:52:32;;;;;;;4.20;1.60;;;;;;;;;;4954228;29;20792;-74
2023/11/20 12:54:58;;;;;;;1.80;1.17;;;;;;;;;;4954399;28;20869;-74
2023/11/20 12:57:24;;;;;;;8.80;1.20;;;;;;;;;;4954112;29;20455;-73
2023/11/20 12:59:50;;;;;;;6.20;1.23;;;;;;;;;;4954445;28;20444;-74
2023/11/20 13:02:24;;;;;;;2.63;1.20;;;;;;;;;;4954306;28;20952;-74
2023/11/20 13:04:52;;;;;;;2.57;1.20;;;;;;;;;;4960042;28;20587;-73
2023/11/20 13:07:21;;;;;;;3.30;1.30;;;;;;;;;;4957266;29;20423;-73
2023/11/20 13:09:47;;;;;;;2.50;1.40;;;;;;;;;;4974892;28;20472;-74
2023/11/20 13:12:13;;;;;;;3.70;1.20;;;;;;;;;;4960290;29;20418;-73
2023/11/20 13:14:58;;;;;;;3.77;1.63;;;;;;;;;;4961195;28;20521;-74
2023/11/20 13:17:24;;;;;;;3.83;2.10;;;;;;;;;;4955491;29;20470;-78
2023/11/20 13:19:51;;;;;;;5.50;2.17;;;;;;;;;;4955444;28;20417;-74
2023/11/20 13:22:17;;;;;;;3.60;1.33;;;;;;;;;;4954624;29;20419;-74
2023/11/20 13:24:48;;;;;;;8.67;1.63;;;;;;;;;;4955307;28;20432;-74
2023/11/20 13:27:14;;;;;;;3.50;1.47;;;;;;;;;;4953653;28;21047;-74
2023/11/20 13:29:40;;;;;;;8.10;1.50;;;;;;;;;;4955860;28;20413;-74
2023/11/20 13:32:22;;;;;;;2.83;1.40;;;;;;;;;;4953984;28;20463;-74
2023/11/20 13:34:48;;;;;;;3.60;1.70;;;;;;;;;;4953661;28;20490;-74
2023/11/20 13:37:14;;;;;;;6.20;2.40;;;;;;;;;;4953665;29;20413;-74
2023/11/20 13:39:40;;;;;;;6.13;1.80;;;;;;;;;;4953699;28;20412;-73
2023/11/20 13:42:06;;;;;;;2.80;1.30;;;;;;;;;;4953549;29;20757;-74
2023/11/20 13:44:32;;;;;;;3.60;1.20;;;;;;;;;;4956816;28;20482;-73
2023/11/20 13:46:58;;;;;;;2.23;1.07;;;;;;;;;;4938265;29;20401;-73
2023/11/20 13:49:25;;;;;;;4.03;1.27;;;;;;;;;;4938313;29;20409;-72
2023/11/20 13:51:51;;;;;;;4.03;1.67;;;;;;;;;;4969652;28;20770;-74
2023/11/20 13:54:17;;;;;;;4.10;1.83;;;;;;;;;;4946547;29;20652;-73
2023/11/20 13:56:43;;;;;;;3.63;1.33;;;;;;;;;;4958310;28;20833;-73
2023/11/20 13:59:09;;;;;;;6.13;1.50;;;;;;;;;;4957012;29;20908;-74
2023/11/20 14:01:35;;;;;;;1.30;1.20;;;;;;;;;;4953797;28;20424;-73
2023/11/20 14:04:01;;;;;;;2.63;1.37;;;;;;;;;;4946280;29;20437;-74
2023/11/20 14:06:28;;;;;;;2.50;1.30;;;;;;;;;;4952329;28;20450;-74
2023/11/20 14:08:54;;;;;;;5.93;1.73;;;;;;;;;;4957355;29;20508;-75
2023/11/20 14:11:20;;;;;;;6.00;1.47;;;;;;;;;;4956153;28;20558;-74
2023/11/20 14:13:48;;;;;;;2.20;1.10;;;;;;;;;;4948762;29;20449;-74
2023/11/20 14:16:14;;;;;;;2.37;1.40;;;;;;;;;;4949652;28;20423;-74
2023/11/20 14:18:40;;;;;;;4.20;1.30;;;;;;;;;;4956962;29;20792;-73
2023/11/20 14:21:06;;;;;;;3.90;1.63;;;;;;;;;;4956643;28;20466;-72
2023/11/20 14:23:33;;;;;;;5.07;1.60;;;;;;;;;;4956839;28;20435;-74
2023/11/20 14:25:59;;;;;;;2.30;1.07;;;;;;;;;;4956565;28;20431;-73
2023/11/20 14:28:25;;;;;;;2.80;1.73;;;;;;;;;;4956975;29;20409;-73
2023/11/20 14:30:52;;;;;;;4.83;1.27;;;;;;;;;;4953612;28;20468;-72
2023/11/20 14:33:18;;;;;;;7.17;1.60;;;;;;;;;;4942835;29;20431;-70
2023/11/20 14:35:44;;;;;;;8.80;2.20;;;;;;;;;;4950542;28;20930;-68
2023/11/20 14:38:14;;;;;;;2.00;1.27;;;;;;;;;;4952286;29;20568;-73
2023/11/20 14:40:40;;;;;;;6.03;2.37;;;;;;;;;;4956928;28;20428;-71
2023/11/20 14:43:08;;;;;;;6.57;1.60;;;;;;;;;;4956323;28;20515;-72
2023/11/20 14:45:34;;;;;;;4.43;1.80;;;;;;;;;;4944268;29;20645;-71
2023/11/20 14:48:02;;;;;;;3.47;1.53;;;;;;;;;;4956917;29;20428;-71
2023/11/20 14:50:28;;;;;;;3.33;2.00;;;;;;;;;;4948093;29;20992;-72
2023/11/20 14:52:54;;;;;;;3.27;1.53;;;;;;;;;;4939835;28;20453;-72
2023/11/20 14:55:21;;;;;;;6.03;1.97;;;;;;;;;;4946220;29;20531;-72
2023/11/20 14:57:48;;;;;;;4.13;2.13;;;;;;;;;;4964086;28;20486;-73
2023/11/20 15:00:15;;;;;;;2.70;1.30;;;;;;;;;;4945529;28;20519;-72
2023/11/20 15:02:42;;;;;;;2.37;1.40;;;;;;;;;;4956036;28;20886;-72
2023/11/20 15:05:08;;;;;;;3.00;1.60;;;;;;;;;;4952051;28;20444;-71
2023/11/20 15:07:34;;;;;;;1.57;1.17;;;;;;;;;;4947990;28;20428;-73
2023/11/20 15:10:00;;;;;;;6.83;1.97;;;;;;;;;;4952404;28;20461;-73
2023/11/20 15:12:26;;;;;;;3.33;1.67;;;;;;;;;;4944821;29;20789;-73
2023/11/20 15:14:53;;;;;;;3.47;1.70;;;;;;;;;;4971334;28;20968;-72
2023/11/20 15:17:19;;;;;;;6.83;1.73;;;;;;;;;;4954390;28;20470;-73
2023/11/20 15:19:45;;;;;;;5.47;1.60;;;;;;;;;;4957888;28;20472;-71
2023/11/20 15:22:11;;;;;;;4.17;1.40;;;;;;;;;;4956290;28;20424;-72
2023/11/20 15:24:37;;;;;;;5.90;2.17;;;;;;;;;;4955865;28;20948;-72
2023/11/20 15:27:02;;;;;;;4.07;1.77;;;;;;;;;;4959801;28;20412;-72
2023/11/20 15:29:28;;;;;;;3.47;1.70;;;;;;;;;;4952529;28;20553;-71
2023/11/20 15:31:55;;;;;;;5.50;1.90;;;;;;;;;;4955748;28;20575;-71
2023/11/20 15:34:22;;;;;;;2.97;1.70;;;;;;;;;;4955686;28;20496;-72
2023/11/20 15:36:48;;;;;;;2.60;2.30;;;;;;;;;;4947539;28;20424;-72
2023/11/20 15:39:15;;;;;;;4.37;2.90;;;;;;;;;;4955838;28;20417;-72
2023/11/20 15:41:41;;;;;;;7.60;2.57;;;;;;;;;;4955425;28;20529;-72
2023/11/20 15:44:10;;;;;;;10.33;3.23;;;;;;;;;;4963563;28;20971;-73
2023/11/20 15:46:36;;;;;;;7.73;2.57;;;;;;;;;;4955150;28;20420;-75
2023/11/20 15:49:03;;;;;;;5.93;2.30;;;;;;;;;;4943312;28;20435;-73
2023/11/20 15:51:29;;;;;;;2.33;2.00;;;;;;;;;;4954926;28;20602;-72
2023/11/20 15:53:55;;;;;;;5.37;2.93;;;;;;;;;;4971563;28;20905;-74
2023/11/20 15:56:21;;;;;;;4.30;2.20;;;;;;;;;;4947250;29;20417;-73
2023/11/20 15:58:47;;;;;;;4.93;1.97;;;;;;;;;;4948171;28;20422;-74
2023/11/20 16:01:13;;;;;;;4.53;2.80;;;;;;;;;;4974543;28;20863;-73
2023/11/20 16:03:39;;;;;;;7.00;2.97;;;;;;;;;;4973328;28;20526;-72
2023/11/20 16:06:07;;;;;;;10.33;3.03;;;;;;;;;;4973449;28;20439;-73
2023/11/20 16:08:33;;;;;;;9.37;2.80;;;;;;;;;;4964585;28;20967;-73
2023/11/20 16:10:59;;;;;;;5.33;2.50;;;;;;;;;;4951471;29;20549;-72
2023/11/20 16:13:25;;;;;;;11.37;2.27;;;;;;;;;;4955030;29;20611;-72
2023/11/20 16:15:52;;;;;;;5.60;2.10;;;;;;;;;;4954965;29;20476;-73
2023/11/20 16:18:18;;;;;;;8.27;3.60;;;;;;;;;;4955069;29;20851;-73
2023/11/20 16:20:44;;;;;;;13.03;4.20;;;;;;;;;;4943603;29;20925;-72
2023/11/20 16:23:11;;;;;;;8.00;2.90;;;;;;;;;;4936105;29;20418;-73
2023/11/20 16:25:36;;;;;;;5.60;2.17;;;;;;;;;;4934551;29;20493;-74
2023/11/20 16:28:02;;;;;;;7.70;3.90;;;;;;;;;;4936182;29;20923;-73
2023/11/20 16:30:28;;;;;;;5.77;2.73;;;;;;;;;;4935915;29;20980;-75
2023/11/20 16:32:55;;;;;;;9.20;3.33;;;;;;;;;;4935499;29;20422;-73
2023/11/20 16:35:23;;;;;;;6.80;3.70;;;;;;;;;;4935948;29;20438;-72
2023/11/20 16:37:49;;;;;;;7.40;3.43;;;;;;;;;;4935714;29;20418;-73
2023/11/20 16:40:15;;;;;;;7.53;3.53;;;;;;;;;;4934405;29;20837;-71
2023/11/20 16:42:42;;;;;;;10.13;3.00;;;;;;;;;;4935633;29;20422;-73
2023/11/20 16:45:09;;;;;;;4.17;2.60;;;;;;;;;;4935581;29;20434;-72
2023/11/20 16:47:36;;;;;;;6.73;2.47;;;;;;;;;;4949252;29;20944;-71
2023/11/20 16:50:03;;;;;;;5.37;2.37;;;;;;;;;;4954621;29;20606;-73
2023/11/20 16:52:30;;;;;;;3.77;2.63;;;;;;;;;;4938544;29;20418;-73
2023/11/20 16:54:59;;;;;;;8.00;2.40;;;;;;;;;;4935505;29;20445;-73
2023/11/20 16:57:25;;;;;;;4.00;2.57;;;;;;;;;;4934466;29;20413;-73
2023/11/20 16:59:56;;;;;;;3.10;2.10;;;;;;;;;;4934007;29;20477;-74
2023/11/20 17:02:24;;;;;;;8.90;3.03;;;;;;;;;;4934243;29;20845;-73
2023/11/20 17:04:50;;;;;;;3.60;2.27;;;;;;;;;;4934406;29;20979;-73
2023/11/20 17:07:16;;;;;;;4.03;2.47;;;;;;;;;;4942035;29;20460;-73
2023/11/20 17:09:42;;;;;;;3.93;2.00;;;;;;;;;;4954697;29;20417;-73
2023/11/20 17:12:09;;;;;;;7.93;2.40;;;;;;;;;;4954610;29;20435;-73
2023/11/20 17:14:36;;;;;;;9.70;3.37;;;;;;;;;;4961334;29;20463;-73
2023/11/20 17:17:02;;;;;;;4.27;2.50;;;;;;;;;;4974713;29;20397;-73
2023/11/20 17:19:28;;;;;;;16.13;7.23;;;;;;;;;;4974985;28;20473;-73
2023/11/20 17:21:54;;;;;;;12.20;6.20;;;;;;;;;;4968944;29;20912;-73
2023/11/20 17:24:20;;;;;;;10.93;5.17;;;;;;;;;;4957692;29;20443;-73
2023/11/20 17:26:46;;;;;;;14.07;4.30;;;;;;;;;;4954389;29;20853;-73
2023/11/20 17:29:12;;;;;;;12.37;4.43;;;;;;;;;;4954358;29;20431;-73
2023/11/20 17:31:38;;;;;;;13.83;4.00;;;;;;;;;;4952510;29;20547;-73
2023/11/20 17:34:04;;;;;;;7.30;3.83;;;;;;;;;;4954147;29;20512;-74
2023/11/20 17:36:30;;;;;;;8.97;4.23;;;;;;;;;;4951234;29;20413;-74
2023/11/20 17:38:56;;;;;;;3.80;2.20;;;;;;;;;;4934994;29;20446;-74
2023/11/20 17:41:22;;;;;;;6.80;3.20;;;;;;;;;;4935062;29;20833;-74
2023/11/20 17:43:48;;;;;;;4.67;1.80;;;;;;;;;;4933583;29;20989;-74
2023/11/20 17:46:14;;;;;;;2.10;1.83;;;;;;;;;;4940246;29;20515;-73
2023/11/20 17:48:40;;;;;;;4.60;2.07;;;;;;;;;;4953848;29;20515;-74
2023/11/20 17:51:07;;;;;;;2.60;1.90;;;;;;;;;;4954436;29;20619;-73
2023/11/20 17:53:34;;;;;;;2.63;1.73;;;;;;;;;;4954134;29;20951;-72
2023/11/20 17:56:04;;;;;;;5.73;2.20;;;;;;;;;;4952628;29;20487;-73
2023/11/20 17:58:30;;;;;;;7.13;2.97;;;;;;;;;;4936514;29;20415;-73
2023/11/20 18:00:56;;;;;;;9.03;2.93;;;;;;;;;;4936116;29;20964;-73
2023/11/20 18:03:22;;;;;;;6.73;2.20;;;;;;;;;;4935143;29;20438;-73
2023/11/20 18:05:48;;;;;;;8.20;2.23;;;;;;;;;;4935036;29;20965;-73
2023/11/20 18:08:17;;;;;;;6.53;2.10;;;;;;;;;;4952853;29;20428;-74
2023/11/20 18:10:44;;;;;;;3.90;2.50;;;;;;;;;;4954071;29;20559;-74
2023/11/20 18:13:10;;;;;;;7.67;2.40;;;;;;;;;;4953772;29;20900;-74
2023/11/20 18:15:36;;;;;;;3.00;2.30;;;;;;;;;;4943688;28;20504;-75
2023/11/20 18:18:03;;;;;;;4.47;2.20;;;;;;;;;;4950483;29;20427;-75
2023/11/20 18:20:30;;;;;;;9.27;3.60;;;;;;;;;;4953533;29;20427;-75
2023/11/20 18:22:56;;;;;;;7.77;3.03;;;;;;;;;;4953736;29;20892;-75
2023/11/20 18:25:22;;;;;;;7.13;3.23;;;;;;;;;;4953385;29;20439;-75
2023/11/20 18:27:48;;;;;;;15.57;3.40;;;;;;;;;;4939538;29;20421;-75
2023/11/20 18:30:14;;;;;;;7.70;3.30;;;;;;;;;;4935390;29;20491;-75
2023/11/20 18:32:41;;;;;;;13.63;4.47;;;;;;;;;;4938081;29;20435;-75
2023/11/20 18:35:07;;;;;;;8.47;3.60;;;;;;;;;;4938205;29;20443;-75
2023/11/20 18:37:33;;;;;;;10.57;2.77;;;;;;;;;;4948888;29;20412;-75
2023/11/20 18:40:00;;;;;;;8.53;3.67;;;;;;;;;;4957306;29;20779;-75
2023/11/20 18:42:26;;;;;;;7.73;2.87;;;;;;;;;;4957253;29;20409;-74
2023/11/20 18:44:52;;;;;;;7.47;2.63;;;;;;;;;;4957013;29;20440;-75
2023/11/20 18:47:18;;;;;;;5.17;2.53;;;;;;;;;;4950814;29;20472;-75
2023/11/20 18:49:45;;;;;;;9.83;3.17;;;;;;;;;;4940107;29;20505;-75
2023/11/20 18:52:11;;;;;;;7.60;2.97;;;;;;;;;;4941948;29;20446;-75
2023/11/20 18:54:37;;;;;;;12.90;3.53;;;;;;;;;;4947364;29;20449;-75
2023/11/20 18:57:04;;;;;;;9.90;4.83;;;;;;;;;;4945361;29;20777;-75
2023/11/20 18:59:33;;;;;;;13.07;4.30;;;;;;;;;;4959191;29;20413;-75
2023/11/20 19:02:00;;;;;;;17.23;5.73;;;;;;;;;;4960251;29;20412;-74
2023/11/20 19:04:26;;;;;;;8.20;3.40;;;;;;;;;;4959831;29;20441;-75
2023/11/20 19:06:52;;;;;;;8.27;3.40;;;;;;;;;;4960422;29;20428;-75
2023/11/20 19:09:18;;;;;;;7.90;4.00;;;;;;;;;;4959411;29;20977;-75
2023/11/20 19:11:45;;;;;;;8.20;3.40;;;;;;;;;;4956791;29;20464;-75
2023/11/20 19:14:11;;;;;;;8.63;4.10;;;;;;;;;;4951231;29;20503;-75
2023/11/20 19:16:37;;;;;;;8.10;3.87;;;;;;;;;;4937049;29;20777;-75
2023/11/20 19:19:03;;;;;;;9.03;2.57;;;;;;;;;;4946061;29;20428;-75
2023/11/20 19:21:29;;;;;;;3.20;1.90;;;;;;;;;;4956761;29;20516;-74
2023/11/20 19:23:55;;;;;;;7.37;2.70;;;;;;;;;;4953581;29;20476;-74
2023/11/20 19:26:23;;;;;;;4.93;2.53;;;;;;;;;;4955943;29;20420;-75
2023/11/20 19:28:49;;;;;;;5.10;2.00;;;;;;;;;;4956254;29;20913;-75
2023/11/20 19:31:15;;;;;;;4.20;2.00;;;;;;;;;;4956075;29;20463;-75
2023/11/20 19:33:43;;;;;;;5.80;2.23;;;;;;;;;;4962199;28;20439;-75
2023/11/20 19:36:09;;;;;;;8.90;2.87;;;;;;;;;;4975094;28;20419;-75
2023/11/20 19:38:37;;;;;;;8.70;2.90;;;;;;;;;;4975430;28;20471;-75
2023/11/20 19:41:03;;;;;;;10.80;3.03;;;;;;;;;;4963544;28;20500;-74
2023/11/20 19:43:29;;;;;;;8.23;2.53;;;;;;;;;;4956219;29;20439;-74
2023/11/20 19:45:56;;;;;;;9.80;2.90;;;;;;;;;;4955408;29;20487;-74
2023/11/20 19:48:24;;;;;;;8.87;2.40;;;;;;;;;;4955917;29;20417;-74
2023/11/20 19:50:50;;;;;;;10.30;2.70;;;;;;;;;;4947538;29;20468;-74
2023/11/20 19:53:16;;;;;;;7.40;3.20;;;;;;;;;;4936499;29;20417;-74
2023/11/20 19:55:42;;;;;;;9.57;3.10;;;;;;;;;;4936690;29;20834;-74
2023/11/20 19:58:08;;;;;;;5.47;3.17;;;;;;;;;;4936546;29;20406;-74
2023/11/20 20:00:34;;;;;;;11.37;3.83;;;;;;;;;;4941072;29;20440;-74
2023/11/20 20:03:00;;;;;;;9.00;3.00;;;;;;;;;;4954114;29;20440;-74
2023/11/20 20:05:25;;;;;;;6.47;3.17;;;;;;;;;;4952145;29;20464;-73
2023/11/20 20:07:58;;;;;;;8.93;3.90;;;;;;;;;;4959589;29;20427;-74
2023/11/20 20:10:24;;;;;;;8.20;3.17;;;;;;;;;;4956253;29;20497;-74
2023/11/20 20:12:50;;;;;;;8.23;3.57;;;;;;;;;;4941056;29;20497;-74
2023/11/20 20:15:16;;;;;;;16.23;3.10;;;;;;;;;;4940500;29;20488;-74
2023/11/20 20:17:42;;;;;;;11.03;4.30;;;;;;;;;;4936300;29;20457;-74
2023/11/20 20:20:09;;;;;;;12.70;3.67;;;;;;;;;;4937096;29;20452;-75
2023/11/20 20:22:38;;;;;;;12.33;3.17;;;;;;;;;;4955679;29;20449;-74
2023/11/20 20:25:04;;;;;;;9.80;3.00;;;;;;;;;;4956348;29;20936;-74
2023/11/20 20:27:30;;;;;;;14.80;3.30;;;;;;;;;;4955130;29;20417;-74
2023/11/20 20:29:57;;;;;;;13.90;3.00;;;;;;;;;;4954920;29;20413;-74
2023/11/20 20:32:23;;;;;;;9.83;3.17;;;;;;;;;;4953953;29;20421;-75
2023/11/20 20:34:50;;;;;;;5.67;3.00;;;;;;;;;;4954965;29;20440;-75
2023/11/20 20:37:16;;;;;;;6.40;3.33;;;;;;;;;;4954615;29;20511;-75